KAPG/APG METAR and TAF weather

Enter ICAO airport designator
Station Type Date Time Source
KAPG METAR 2019/02/22 23:54 UTC NOAA

KAPG 222354Z 33004KT 7SM OVC090 02/M02 A3043


Station Type Date Time Source
KAPG Decoded METAR 2019/02/22 23:54 UTC NOAA

Phillips Army Air Field / Aberdeen, MD, United States (KAPG) 39-28N 076-10W
Feb 22, 2019 - 06:54 PM EST / 2019.02.22 2354 UTC
Wind: from the NNW (330 degrees) at 5 MPH (4 KT):0
Visibility: 7 mile(s):0
Sky conditions: overcast
Temperature: 35 F (2 C)
Windchill: 30 F (-1 C):1
Dew Point: 28 F (-2 C)
Relative Humidity: 74%
Pressure (altimeter): 30.43 in. Hg (1030 hPa)
ob: KAPG 222354Z 33004KT 7SM OVC090 02/M02 A3043
cycle: 0

Station Type Date Time Source
KAPG TAF UTC NOAA

Error!


Example: see airport list